createdAt,value
2019-04-25T00:00:21.502Z,99.99
2019-04-25T00:01:21.589Z,99.96
2019-04-25T00:03:13.077Z,99.96
2019-04-25T00:04:13.027Z,99.99
2019-04-25T00:06:05.780Z,99.58
2019-04-25T00:07:05.704Z,99.92
2019-04-25T00:08:58.489Z,99.63
2019-04-25T00:09:58.420Z,99.58
2019-04-25T00:11:52.290Z,99.63
2019-04-25T00:12:51.793Z,99.25
2019-04-25T00:14:43.900Z,99.54
2019-04-25T00:15:44.881Z,99.58
2019-04-25T00:17:36.650Z,99.25
2019-04-25T00:18:36.554Z,99.25
2019-04-25T00:20:29.314Z,99.73
2019-04-25T00:21:29.252Z,99.63
2019-04-25T00:23:22.021Z,99.54
2019-04-25T00:24:23.796Z,99.77
2019-04-25T00:26:14.716Z,99.54
2019-04-25T00:27:14.651Z,99.99
2019-04-25T00:29:07.456Z,99.63
2019-04-25T00:30:07.362Z,99.63
2019-04-25T00:32:01.551Z,99.25
2019-04-25T00:33:00.079Z,99.77
2019-04-25T00:34:52.878Z,99.96
2019-04-25T00:35:52.870Z,99.77
2019-04-25T00:37:46.184Z,99.99
2019-04-25T00:38:46.996Z,99.99
2019-04-25T00:40:38.284Z,99.99
2019-04-25T00:41:38.223Z,99.99
2019-04-25T00:43:31.448Z,99.99
2019-04-25T00:44:31.918Z,99.99
2019-04-25T00:46:23.689Z,99.99
2019-04-25T00:47:23.624Z,99.99
2019-04-25T00:49:16.443Z,99.99
2019-04-25T00:50:16.361Z,99.99
2019-04-25T00:52:09.124Z,99.99
2019-04-25T00:53:09.061Z,99.99
2019-04-25T00:55:02.038Z,99.99
2019-04-25T00:56:01.763Z,99.99
2019-04-25T00:57:54.552Z,99.99
2019-04-25T00:58:54.459Z,99.99
2019-04-25T01:00:47.241Z,99.99
2019-04-25T01:01:47.996Z,99.99
2019-04-25T01:03:39.948Z,99.99
2019-04-25T01:04:41.801Z,99.99
2019-04-25T01:06:32.642Z,99.99
2019-04-25T01:07:34.441Z,99.99
2019-04-25T01:09:25.384Z,99.99
2019-04-25T01:10:25.272Z,99.99
2019-04-25T01:12:18.045Z,99.99
2019-04-25T01:13:17.967Z,99.99
2019-04-25T01:15:11.612Z,99.99
2019-04-25T01:16:11.997Z,99.99
2019-04-25T01:18:03.457Z,99.99
2019-04-25T01:19:03.563Z,99.99
2019-04-25T01:20:56.180Z,99.99
2019-04-25T01:21:56.114Z,99.99
2019-04-25T01:23:49.415Z,99.99
2019-04-25T01:24:49.421Z,99.99
2019-04-25T01:26:41.677Z,99.99
2019-04-25T01:27:43.213Z,99.99
2019-04-25T01:29:34.401Z,99.99
2019-04-25T01:30:34.309Z,99.99
2019-04-25T01:32:27.091Z,99.99
2019-04-25T01:33:27.030Z,99.99
2019-04-25T01:35:19.896Z,99.99
2019-04-25T01:36:19.759Z,99.99
2019-04-25T01:38:13.869Z,99.99
2019-04-25T01:39:14.286Z,99.99
2019-04-25T01:41:05.312Z,99.99
2019-04-25T01:42:05.385Z,99.99
2019-04-25T01:43:59.667Z,99.99
2019-04-25T01:44:58.881Z,99.99
2019-04-25T01:46:50.700Z,99.99
2019-04-25T01:47:50.637Z,99.99
2019-04-25T01:49:43.900Z,99.99
2019-04-25T01:50:43.757Z,99.99
2019-04-25T01:52:36.133Z,99.99
2019-04-25T01:53:36.060Z,99.99
2019-04-25T01:56:05.893Z,99.99
2019-04-25T01:57:02.237Z,99.99
2019-04-25T01:58:55.917Z,99.99
2019-04-25T01:59:55.427Z,99.99
2019-04-25T02:01:47.684Z,99.99
2019-04-25T02:02:47.606Z,99.99
2019-04-25T02:04:40.408Z,99.99
2019-04-25T02:05:40.315Z,99.99
2019-04-25T02:07:33.427Z,99.99
2019-04-25T02:08:33.981Z,99.99
2019-04-25T02:10:25.814Z,99.99
2019-04-25T02:11:25.741Z,99.99
2019-04-25T02:13:18.542Z,99.99
2019-04-25T02:14:18.472Z,99.99
2019-04-25T02:16:11.257Z,99.99
2019-04-25T02:17:11.177Z,99.99
2019-04-25T02:19:04.111Z,99.99
2019-04-25T02:20:04.250Z,99.99
2019-04-25T02:21:56.680Z,99.99
2019-04-25T02:22:56.616Z,99.99
2019-04-25T02:24:49.390Z,99.99
2019-04-25T02:25:49.309Z,99.99
2019-04-25T02:27:42.087Z,99.99
2019-04-25T02:28:43.721Z,99.99
2019-04-25T02:30:35.633Z,99.99
2019-04-25T02:31:35.098Z,99.99
2019-04-25T02:33:27.528Z,99.99
2019-04-25T02:34:27.469Z,99.99
2019-04-25T02:36:20.260Z,99.99
2019-04-25T02:37:20.184Z,99.99
2019-04-25T02:39:14.876Z,99.99
2019-04-25T02:40:14.176Z,99.99
2019-04-25T02:42:08.125Z,99.99
2019-04-25T02:43:08.050Z,99.99
2019-04-25T02:45:00.689Z,99.99
2019-04-25T02:46:00.029Z,99.99
2019-04-25T02:47:51.185Z,99.99
2019-04-25T02:48:51.120Z,99.99
2019-04-25T02:50:46.162Z,99.99
2019-04-25T02:51:45.104Z,99.99
2019-04-25T02:53:37.352Z,99.99
2019-04-25T02:54:36.519Z,99.99
2019-04-25T02:56:34.380Z,99.99
2019-04-25T02:57:29.206Z,99.99
2019-04-25T02:59:25.164Z,99.99
2019-04-25T03:00:24.627Z,99.99
2019-04-25T03:02:15.521Z,99.99
2019-04-25T03:03:15.067Z,99.99
2019-04-25T03:05:09.812Z,99.99
2019-04-25T03:06:09.564Z,99.99
2019-04-25T03:08:01.469Z,99.99
2019-04-25T03:09:01.780Z,99.99
2019-04-25T03:10:54.353Z,99.99
2019-04-25T03:11:54.798Z,99.99
2019-04-25T03:13:45.758Z,99.99
2019-04-25T03:14:45.683Z,99.99
2019-04-25T03:16:38.488Z,99.99
2019-04-25T03:17:38.420Z,99.99
2019-04-25T03:19:31.165Z,99.99
2019-04-25T03:20:31.103Z,99.99
2019-04-25T03:22:26.391Z,99.99
2019-04-25T03:23:24.518Z,99.99
2019-04-25T03:25:17.702Z,99.99
2019-04-25T03:26:16.518Z,99.99
2019-04-25T03:28:09.288Z,99.99
2019-04-25T03:29:09.387Z,99.99
2019-04-25T03:31:04.482Z,99.99
2019-04-25T03:32:02.682Z,99.99
2019-04-25T03:33:55.850Z,99.99
2019-04-25T03:34:54.920Z,99.99
2019-04-25T03:36:47.441Z,99.99
2019-04-25T03:37:47.357Z,99.99
2019-04-25T03:39:40.135Z,99.99
2019-04-25T03:40:40.069Z,99.99
2019-04-25T03:42:33.903Z,99.99
2019-04-25T03:43:33.239Z,99.99
2019-04-25T03:45:25.534Z,99.99
2019-04-25T03:46:25.470Z,99.99
2019-04-25T03:48:18.300Z,99.99
2019-04-25T03:49:18.216Z,99.99
2019-04-25T03:51:11.025Z,99.99
2019-04-25T03:52:10.907Z,99.99
2019-04-25T03:54:04.750Z,99.99
2019-04-25T03:55:05.088Z,99.99
2019-04-25T03:56:56.386Z,99.99
2019-04-25T03:57:56.304Z,99.99
2019-04-25T03:59:49.093Z,99.99
2019-04-25T04:00:49.018Z,99.99
2019-04-25T04:02:41.822Z,99.99
2019-04-25T04:03:41.745Z,99.99
2019-04-25T04:05:34.617Z,99.99
2019-04-25T04:06:34.457Z,99.99
2019-04-25T04:08:27.244Z,99.99
2019-04-25T04:09:27.159Z,99.99
2019-04-25T04:11:19.936Z,99.99
2019-04-25T04:12:19.864Z,99.99
2019-04-25T04:14:14.517Z,99.99
2019-04-25T04:15:14.393Z,99.99
2019-04-25T04:17:06.480Z,99.99
2019-04-25T04:18:06.364Z,99.99
2019-04-25T04:19:58.016Z,99.99
2019-04-25T04:20:57.955Z,99.99
2019-04-25T04:22:50.718Z,99.99
2019-04-25T04:23:50.646Z,99.99
2019-04-25T04:25:43.411Z,99.99
2019-04-25T04:26:43.353Z,99.99
2019-04-25T04:28:36.120Z,99.99
2019-04-25T04:29:36.042Z,99.99
2019-04-25T04:31:28.855Z,99.99
2019-04-25T04:32:28.752Z,99.99
2019-04-25T04:34:21.509Z,99.99
2019-04-25T04:35:21.445Z,99.99
2019-04-25T04:37:15.781Z,99.99
2019-04-25T04:38:15.049Z,99.99
2019-04-25T04:40:07.929Z,99.99
2019-04-25T04:41:07.333Z,99.99
2019-04-25T04:42:59.612Z,99.99
2019-04-25T04:43:59.532Z,99.99
2019-04-25T04:45:52.303Z,99.99
2019-04-25T04:46:53.787Z,99.99
2019-04-25T04:48:45.019Z,99.99
2019-04-25T04:49:44.941Z,99.99
2019-04-25T04:51:37.717Z,99.99
2019-04-25T04:52:37.653Z,99.99
2019-04-25T04:54:30.540Z,99.99
2019-04-25T04:55:30.371Z,99.99
2019-04-25T04:57:32.549Z,99.99
2019-04-25T04:58:24.957Z,99.99
2019-04-25T05:00:16.753Z,99.99
2019-04-25T05:01:16.677Z,99.99
2019-04-25T05:03:08.540Z,99.99
2019-04-25T05:04:08.458Z,99.99
2019-04-25T05:06:01.233Z,99.99
2019-04-25T05:07:01.160Z,99.99
2019-04-25T05:08:54.856Z,99.99
2019-04-25T05:09:53.869Z,99.99
2019-04-25T05:11:46.658Z,99.99
2019-04-25T05:12:46.591Z,99.99
2019-04-25T05:14:39.397Z,99.99
2019-04-25T05:15:39.303Z,99.99
2019-04-25T05:17:32.121Z,99.99
2019-04-25T05:18:37.521Z,99.99
2019-04-25T05:20:24.829Z,99.99
2019-04-25T05:21:25.196Z,99.99
2019-04-25T05:23:17.502Z,99.99
2019-04-25T05:24:17.425Z,99.99
2019-04-25T05:26:10.195Z,99.99
2019-04-25T05:27:10.126Z,99.99
2019-04-25T05:29:03.665Z,99.99
2019-04-25T05:30:03.997Z,99.99
2019-04-25T05:31:55.622Z,99.99
2019-04-25T05:32:55.553Z,99.99
2019-04-25T05:34:49.425Z,99.99
2019-04-25T05:35:48.282Z,99.99
2019-04-25T05:37:41.053Z,99.99
2019-04-25T05:38:40.975Z,99.99
2019-04-25T05:40:33.757Z,99.99
2019-04-25T05:41:35.801Z,99.99
2019-04-25T05:43:26.447Z,95.12
2019-04-25T05:44:27.296Z,90.88
2019-04-25T05:46:19.141Z,83.96
2019-04-25T05:47:21.347Z,82.46
2019-04-25T05:49:11.879Z,78.61
2019-04-25T05:50:11.803Z,75.95
2019-04-25T05:52:04.582Z,74.15
2019-04-25T05:53:04.512Z,72.83
2019-04-25T05:54:57.298Z,72.34
2019-04-25T05:55:57.259Z,71.28
2019-04-25T05:57:50.319Z,71.18
2019-04-25T05:58:49.951Z,70.34
2019-04-25T06:00:44.009Z,69.79
2019-04-25T06:01:43.471Z,67.79
2019-04-25T06:03:35.436Z,68.44
2019-04-25T06:04:35.358Z,69.02
2019-04-25T06:06:28.278Z,66.05
2019-04-25T06:07:28.092Z,65.37
2019-04-25T06:09:21.848Z,64.59
2019-04-25T06:10:21.642Z,64.72
2019-04-25T06:12:13.585Z,66.85
2019-04-25T06:13:13.891Z,69.69
2019-04-25T06:15:06.313Z,72.27
2019-04-25T06:16:06.258Z,72.14
2019-04-25T06:17:59.021Z,74.48
2019-04-25T06:19:11.292Z,76.09
2019-04-25T06:20:51.747Z,78.91
2019-04-25T06:21:53.113Z,79.83
2019-04-25T06:23:46.093Z,76.55
2019-04-25T06:24:44.509Z,74.30
2019-04-25T06:26:39.954Z,69.70
2019-04-25T06:27:37.158Z,70.21
2019-04-25T06:29:29.939Z,70.66
2019-04-25T06:30:29.872Z,72.33
2019-04-25T06:32:24.568Z,75.54
2019-04-25T06:33:24.544Z,75.70
2019-04-25T06:35:15.400Z,72.66
2019-04-25T06:36:15.325Z,72.27
2019-04-25T06:38:08.110Z,71.36
2019-04-25T06:39:08.057Z,72.58
2019-04-25T06:41:00.848Z,75.95
2019-04-25T06:42:00.780Z,75.79
2019-04-25T06:43:54.166Z,77.51
2019-04-25T06:44:53.631Z,79.02
2019-04-25T06:46:46.295Z,81.54
2019-04-25T06:47:46.251Z,81.73
2019-04-25T06:49:39.010Z,82.70
2019-04-25T06:50:38.958Z,80.27
2019-04-25T06:52:32.102Z,79.83
2019-04-25T06:53:32.984Z,77.92
2019-04-25T06:55:26.402Z,72.85
2019-04-25T06:56:26.087Z,69.95
2019-04-25T06:58:18.007Z,65.72
2019-04-25T06:59:17.937Z,64.59
2019-04-25T07:01:10.731Z,61.87
2019-04-25T07:02:10.656Z,60.82
2019-04-25T07:04:04.094Z,59.56
2019-04-25T07:05:03.957Z,59.20
2019-04-25T07:06:56.191Z,58.51
2019-04-25T07:07:56.090Z,57.68
2019-04-25T07:09:48.941Z,60.05
2019-04-25T07:10:48.832Z,58.92
2019-04-25T07:12:41.619Z,59.41
2019-04-25T07:13:41.553Z,59.05
2019-04-25T07:15:35.273Z,58.98
2019-04-25T07:16:34.682Z,57.85
2019-04-25T07:18:31.204Z,59.87
2019-04-25T07:19:28.223Z,60.77
2019-04-25T07:21:19.800Z,60.87
2019-04-25T07:22:19.737Z,59.90
2019-04-25T07:24:14.136Z,60.06
2019-04-25T07:25:13.175Z,61.17
2019-04-25T07:27:05.245Z,62.63
2019-04-25T07:28:05.182Z,63.14
2019-04-25T07:29:57.956Z,64.92
2019-04-25T07:30:57.905Z,66.24
2019-04-25T07:32:50.700Z,65.43
2019-04-25T07:33:50.623Z,66.40
2019-04-25T07:35:43.523Z,64.11
2019-04-25T07:36:43.390Z,63.85
2019-04-25T07:38:36.470Z,62.69
2019-04-25T07:39:36.470Z,62.17
2019-04-25T07:41:29.343Z,60.91
2019-04-25T07:42:29.743Z,59.28
2019-04-25T07:44:33.841Z,59.05
2019-04-25T07:45:21.563Z,57.69
2019-04-25T07:47:15.953Z,56.82
2019-04-25T07:48:14.259Z,57.50
2019-04-25T07:50:07.042Z,55.98
2019-04-25T07:51:06.988Z,56.89
2019-04-25T07:52:59.782Z,56.82
2019-04-25T07:53:59.712Z,56.52
2019-04-25T07:55:54.188Z,56.10
2019-04-25T07:56:54.779Z,55.41
2019-04-25T07:58:50.337Z,55.15
2019-04-25T07:59:45.193Z,54.69
2019-04-25T08:01:39.095Z,54.15
2019-04-25T08:02:37.932Z,54.15
2019-04-25T08:04:31.711Z,55.22
2019-04-25T08:05:31.393Z,54.93
2019-04-25T08:07:24.074Z,55.13
2019-04-25T08:08:23.563Z,55.15
2019-04-25T08:10:16.202Z,53.72
2019-04-25T08:11:16.154Z,53.89
2019-04-25T08:13:09.013Z,54.01
2019-04-25T08:14:08.932Z,54.11
2019-04-25T08:16:03.293Z,53.42
2019-04-25T08:17:01.695Z,53.42
2019-04-25T08:18:54.487Z,54.60
2019-04-25T08:19:54.421Z,54.11
2019-04-25T08:21:47.234Z,52.84
2019-04-25T08:22:55.685Z,53.14
2019-04-25T08:24:39.995Z,53.23
2019-04-25T08:25:40.694Z,53.72
2019-04-25T08:27:34.325Z,53.36
2019-04-25T08:28:34.483Z,53.16
2019-04-25T08:30:25.463Z,53.09
2019-04-25T08:31:25.408Z,52.02
2019-04-25T08:33:18.218Z,52.60
2019-04-25T08:34:18.153Z,51.56
2019-04-25T08:36:10.950Z,52.63
2019-04-25T08:37:17.982Z,51.36
2019-04-25T08:39:03.710Z,51.70
2019-04-25T08:40:04.054Z,52.12
2019-04-25T08:41:56.480Z,52.65
2019-04-25T08:42:56.410Z,52.94
2019-04-25T08:44:49.239Z,53.26
2019-04-25T08:45:49.200Z,52.92
2019-04-25T08:47:43.808Z,51.12
2019-04-25T08:48:42.165Z,50.43
2019-04-25T08:50:37.528Z,48.90
2019-04-25T08:51:35.198Z,47.61
2019-04-25T08:53:27.502Z,46.83
2019-04-25T08:54:27.447Z,46.56
2019-04-25T08:56:20.268Z,47.34
2019-04-25T08:57:20.205Z,47.53
2019-04-25T08:59:14.245Z,44.87
2019-04-25T09:00:14.365Z,45.25
2019-04-25T09:02:05.748Z,46.83
2019-04-25T09:03:05.995Z,46.07
2019-04-25T09:04:58.528Z,45.41
2019-04-25T09:05:58.554Z,45.33
2019-04-25T09:07:51.288Z,45.84
2019-04-25T09:08:51.244Z,45.50
2019-04-25T09:10:44.938Z,44.91
2019-04-25T09:11:44.640Z,43.79
2019-04-25T09:13:37.397Z,44.30
2019-04-25T09:14:37.759Z,42.95
2019-04-25T09:16:29.513Z,41.58
2019-04-25T09:17:29.458Z,42.35
2019-04-25T09:19:22.281Z,42.35
2019-04-25T09:20:23.577Z,42.95
2019-04-25T09:22:15.002Z,41.58
2019-04-25T09:23:14.957Z,42.54
2019-04-25T09:25:07.785Z,41.68
2019-04-25T09:26:07.735Z,42.07
2019-04-25T09:28:00.579Z,41.11
2019-04-25T09:29:00.538Z,40.43
2019-04-25T09:30:54.009Z,41.42
2019-04-25T09:31:53.727Z,40.95
2019-04-25T09:33:46.756Z,40.95
2019-04-25T09:34:46.047Z,41.55
2019-04-25T09:36:38.832Z,41.02
2019-04-25T09:37:38.798Z,41.42
2019-04-25T09:39:33.741Z,40.27
2019-04-25T09:40:34.083Z,39.98
2019-04-25T09:42:25.189Z,39.78
2019-04-25T09:43:25.143Z,39.01
2019-04-25T09:45:17.955Z,37.41
2019-04-25T09:46:17.890Z,36.72
2019-04-25T09:48:10.693Z,38.45
2019-04-25T09:49:10.637Z,40.19
2019-04-25T09:51:05.429Z,42.55
2019-04-25T09:52:03.510Z,41.97
2019-04-25T09:53:56.209Z,41.09
2019-04-25T09:54:56.158Z,42.93
2019-04-25T09:56:48.974Z,42.55
2019-04-25T09:57:48.919Z,41.77
2019-04-25T09:59:43.568Z,41.86
2019-04-25T10:00:43.244Z,39.06
2019-04-25T10:02:34.446Z,39.80
2019-04-25T10:03:34.401Z,38.78
2019-04-25T10:05:27.264Z,38.68
2019-04-25T10:06:27.202Z,37.52
2019-04-25T10:08:20.016Z,35.77
2019-04-25T10:09:19.969Z,34.97
2019-04-25T10:11:12.759Z,36.60
2019-04-25T10:12:13.001Z,36.60
2019-04-25T10:14:05.546Z,36.01
2019-04-25T10:15:05.465Z,36.99
2019-04-25T10:16:58.260Z,37.50
2019-04-25T10:17:58.200Z,36.40
2019-04-25T10:19:51.040Z,38.51
2019-04-25T10:20:50.984Z,41.50
2019-04-25T10:22:44.556Z,44.89
2019-04-25T10:23:45.244Z,47.03
2019-04-25T10:25:37.994Z,49.97
2019-04-25T10:26:37.638Z,50.60
2019-04-25T10:28:29.264Z,48.07
2019-04-25T10:29:39.341Z,47.15
2019-04-25T10:31:23.652Z,45.15
2019-04-25T10:32:23.745Z,45.07
2019-04-25T10:34:14.782Z,44.35
2019-04-25T10:35:14.977Z,42.42
2019-04-25T10:37:07.548Z,43.40
2019-04-25T10:38:07.499Z,41.66
2019-04-25T10:40:00.290Z,41.76
2019-04-25T10:41:00.232Z,40.50
2019-04-25T10:42:53.374Z,38.59
2019-04-25T10:43:55.895Z,39.33
2019-04-25T10:45:46.328Z,38.34
2019-04-25T10:46:47.229Z,41.34
2019-04-25T10:48:39.923Z,42.81
2019-04-25T10:49:38.483Z,43.18
2019-04-25T10:51:31.335Z,44.81
2019-04-25T10:52:31.224Z,45.27
2019-04-25T10:54:24.019Z,45.64
2019-04-25T10:55:23.966Z,45.92
2019-04-25T10:57:16.757Z,44.78
2019-04-25T10:58:16.687Z,43.62
2019-04-25T11:00:09.732Z,45.27
2019-04-25T11:01:09.407Z,45.07
2019-04-25T11:03:03.885Z,46.82
2019-04-25T11:04:02.128Z,46.53
2019-04-25T11:05:55.924Z,47.98
2019-04-25T11:06:55.198Z,47.19
2019-04-25T11:08:47.675Z,48.59
2019-04-25T11:09:48.034Z,48.88
2019-04-25T11:11:40.738Z,48.11
2019-04-25T11:12:41.489Z,48.11
2019-04-25T11:14:34.220Z,48.08
2019-04-25T11:15:33.971Z,48.49
2019-04-25T11:17:25.830Z,48.20
2019-04-25T11:18:25.755Z,48.42
2019-04-25T11:20:18.570Z,46.31
2019-04-25T11:21:18.502Z,45.05
2019-04-25T11:23:11.331Z,45.54
2019-04-25T11:24:11.277Z,45.73
2019-04-25T11:26:04.038Z,45.10
2019-04-25T11:27:04.367Z,46.29
2019-04-25T11:28:56.834Z,48.13
2019-04-25T11:30:08.395Z,47.60
2019-04-25T11:31:49.582Z,48.97
2019-04-25T11:32:50.097Z,48.71
2019-04-25T11:34:43.149Z,48.13
2019-04-25T11:35:42.260Z,47.28
2019-04-25T11:37:35.078Z,46.80
2019-04-25T11:38:35.008Z,46.70
2019-04-25T11:40:27.824Z,45.61
2019-04-25T11:41:27.767Z,46.77
2019-04-25T11:43:20.598Z,47.94
2019-04-25T11:44:20.519Z,47.94
2019-04-25T11:46:14.087Z,47.96
2019-04-25T11:47:15.315Z,46.19
2019-04-25T11:49:06.098Z,46.26
2019-04-25T11:50:06.032Z,46.36
2019-04-25T11:51:58.832Z,47.11
2019-04-25T11:52:58.888Z,46.94
2019-04-25T11:54:52.837Z,47.16
2019-04-25T11:55:52.036Z,47.45
2019-04-25T11:57:48.685Z,47.16
2019-04-25T11:58:46.326Z,46.77
2019-04-25T12:00:36.949Z,45.22
2019-04-25T12:01:36.890Z,45.61
2019-04-25T12:03:29.742Z,44.98
2019-04-25T12:04:29.672Z,44.79
2019-04-25T12:06:24.166Z,45.01
2019-04-25T12:07:23.700Z,45.10
2019-04-25T12:09:15.204Z,43.29
2019-04-25T12:10:15.099Z,43.75
2019-04-25T12:12:07.874Z,43.85
2019-04-25T12:13:07.817Z,44.04
2019-04-25T12:15:00.623Z,42.97
2019-04-25T12:16:00.556Z,42.97
2019-04-25T12:17:54.745Z,43.85
2019-04-25T12:18:55.342Z,44.93
2019-04-25T12:20:46.621Z,44.64
2019-04-25T12:21:46.060Z,43.58
2019-04-25T12:23:38.893Z,43.48
2019-04-25T12:24:38.803Z,44.64
2019-04-25T12:26:33.598Z,42.41
2019-04-25T12:27:31.517Z,42.22
2019-04-25T12:29:24.513Z,43.00
2019-04-25T12:30:36.764Z,42.90
2019-04-25T12:32:17.094Z,42.03
2019-04-25T12:33:21.081Z,42.22
2019-04-25T12:35:09.915Z,42.59
2019-04-25T12:36:09.823Z,42.88
2019-04-25T12:38:03.444Z,43.37
2019-04-25T12:39:03.422Z,43.37
2019-04-25T12:40:55.401Z,44.16
2019-04-25T12:41:56.032Z,44.26
2019-04-25T12:43:48.136Z,44.16
2019-04-25T12:44:48.841Z,45.03
2019-04-25T12:46:40.835Z,43.38
2019-04-25T12:47:40.775Z,43.50
2019-04-25T12:49:34.550Z,43.02
2019-04-25T12:50:33.713Z,43.02
2019-04-25T12:52:26.307Z,42.14
2019-04-25T12:53:26.253Z,41.27
2019-04-25T12:55:19.019Z,40.33
2019-04-25T12:56:20.352Z,39.94
2019-04-25T12:58:13.181Z,41.08
2019-04-25T12:59:11.703Z,39.06
2019-04-25T13:01:04.559Z,39.62
2019-04-25T13:02:04.649Z,39.82
2019-04-25T13:03:57.268Z,40.19
2019-04-25T13:04:57.205Z,40.58
2019-04-25T13:06:50.536Z,41.06
2019-04-25T13:07:49.975Z,41.64
2019-04-25T13:09:42.734Z,41.74
2019-04-25T13:10:44.307Z,42.34
2019-04-25T13:12:35.537Z,41.86
2019-04-25T13:13:35.482Z,42.05
2019-04-25T13:15:28.395Z,42.14
2019-04-25T13:16:28.230Z,41.08
2019-04-25T13:18:21.039Z,41.66
2019-04-25T13:19:23.930Z,40.01
2019-04-25T13:21:14.555Z,37.11
2019-04-25T13:22:13.738Z,37.49
2019-04-25T13:24:06.532Z,39.03
2019-04-25T13:25:06.893Z,39.32
2019-04-25T13:26:59.270Z,38.54
2019-04-25T13:27:59.586Z,39.51
2019-04-25T13:29:53.250Z,40.19
2019-04-25T13:31:01.421Z,40.86
2019-04-25T13:32:44.687Z,40.67
2019-04-25T13:33:44.634Z,40.38
2019-04-25T13:35:37.468Z,40.40
2019-04-25T13:36:37.400Z,40.21
2019-04-25T13:38:30.189Z,41.76
2019-04-25T13:39:30.123Z,41.17
2019-04-25T13:41:22.946Z,40.52
2019-04-25T13:42:23.263Z,40.81
2019-04-25T13:44:15.770Z,40.61
2019-04-25T13:45:15.678Z,41.58
2019-04-25T13:47:08.439Z,42.26
2019-04-25T13:48:08.381Z,41.88
2019-04-25T13:50:01.166Z,41.39
2019-04-25T13:51:01.094Z,41.30
2019-04-25T13:52:53.867Z,41.39
2019-04-25T13:53:54.531Z,40.91
2019-04-25T13:55:46.633Z,42.17
2019-04-25T13:56:46.575Z,41.30
2019-04-25T13:58:39.362Z,40.59
2019-04-25T13:59:39.270Z,40.59
2019-04-25T14:01:32.092Z,41.27
2019-04-25T14:02:31.992Z,41.17
2019-04-25T14:04:25.453Z,40.69
2019-04-25T14:05:25.952Z,41.08
2019-04-25T14:07:17.586Z,40.99
2019-04-25T14:08:17.516Z,41.27
2019-04-25T14:10:10.295Z,41.10
2019-04-25T14:11:10.227Z,41.17
2019-04-25T14:13:03.476Z,40.40
2019-04-25T14:14:02.936Z,41.17
2019-04-25T14:15:55.790Z,40.79
2019-04-25T14:16:55.695Z,40.99
2019-04-25T14:18:48.481Z,41.27
2019-04-25T14:19:48.420Z,41.20
2019-04-25T14:21:41.242Z,41.20
2019-04-25T14:22:41.174Z,41.78
2019-04-25T14:24:35.705Z,41.10
2019-04-25T14:25:33.892Z,40.81
2019-04-25T14:27:26.688Z,41.78
2019-04-25T14:28:29.380Z,41.68
2019-04-25T14:30:19.424Z,42.86
2019-04-25T14:31:35.166Z,41.99
2019-04-25T14:33:13.582Z,41.89
2019-04-25T14:34:13.313Z,42.29
2019-04-25T14:36:04.850Z,41.80
2019-04-25T14:37:04.783Z,42.09
2019-04-25T14:38:57.578Z,41.70
2019-04-25T14:39:57.527Z,41.41
2019-04-25T14:41:50.303Z,41.89
2019-04-25T14:42:50.221Z,41.80
2019-04-25T14:44:43.244Z,40.15
2019-04-25T14:45:45.078Z,40.92
2019-04-25T14:47:35.998Z,41.31
2019-04-25T14:48:35.888Z,40.83
2019-04-25T14:50:28.688Z,41.12
2019-04-25T14:51:28.608Z,41.41
2019-04-25T14:53:21.394Z,41.70
2019-04-25T14:54:22.830Z,41.00
2019-04-25T14:56:15.337Z,41.10
2019-04-25T14:57:14.029Z,41.00
2019-04-25T14:59:06.850Z,41.30
2019-04-25T15:00:06.790Z,42.17
2019-04-25T15:01:59.582Z,41.78
2019-04-25T15:02:59.496Z,41.17
2019-04-25T15:04:52.286Z,41.10
2019-04-25T15:05:52.228Z,41.39
2019-04-25T15:07:45.117Z,41.68
2019-04-25T15:08:44.936Z,41.58
2019-04-25T15:10:37.746Z,41.58
2019-04-25T15:11:38.248Z,41.10
2019-04-25T15:13:30.462Z,41.49
2019-04-25T15:14:31.365Z,40.81
2019-04-25T15:16:23.543Z,41.00
2019-04-25T15:17:23.741Z,41.30
2019-04-25T15:19:15.937Z,41.39
2019-04-25T15:20:15.831Z,41.10
2019-04-25T15:22:08.641Z,41.37
2019-04-25T15:23:08.592Z,41.49
2019-04-25T15:25:01.351Z,41.39
2019-04-25T15:26:01.299Z,41.20
2019-04-25T15:27:54.223Z,41.78
2019-04-25T15:28:54.009Z,41.49
2019-04-25T15:30:46.831Z,41.27
2019-04-25T15:31:55.859Z,41.17
2019-04-25T15:33:39.551Z,41.10
2019-04-25T15:34:39.485Z,42.17
2019-04-25T15:36:33.182Z,41.76
2019-04-25T15:37:32.451Z,41.49
2019-04-25T15:39:25.080Z,42.36
2019-04-25T15:40:25.237Z,41.49
2019-04-25T15:42:17.688Z,41.97
2019-04-25T15:43:17.630Z,41.39
2019-04-25T15:45:10.398Z,41.30
2019-04-25T15:46:10.345Z,40.91
2019-04-25T15:48:03.138Z,40.42
2019-04-25T15:49:03.058Z,41.00
2019-04-25T15:50:55.897Z,40.91
2019-04-25T15:51:55.781Z,40.13
2019-04-25T15:53:48.597Z,39.82
2019-04-25T15:54:48.536Z,39.45
2019-04-25T15:56:41.520Z,40.23
2019-04-25T15:57:41.252Z,40.61
2019-04-25T15:59:34.904Z,40.13
2019-04-25T16:00:34.919Z,40.03
2019-04-25T16:02:27.754Z,40.13
2019-04-25T16:03:27.156Z,40.61
2019-04-25T16:05:19.515Z,41.20
2019-04-25T16:06:19.412Z,41.20
2019-04-25T16:08:12.186Z,40.81
2019-04-25T16:09:12.108Z,41.00
2019-04-25T16:11:04.882Z,40.13
2019-04-25T16:12:04.816Z,40.03
2019-04-25T16:13:57.778Z,39.55
2019-04-25T16:14:57.709Z,40.61
2019-04-25T16:16:50.499Z,40.21
2019-04-25T16:17:50.433Z,41.00
2019-04-25T16:19:43.334Z,40.23
2019-04-25T16:20:43.234Z,40.03
2019-04-25T16:22:36.631Z,41.20
2019-04-25T16:23:36.390Z,41.00
2019-04-25T16:25:29.796Z,40.99
2019-04-25T16:26:29.522Z,40.79
2019-04-25T16:28:21.418Z,40.40
2019-04-25T16:29:21.349Z,40.79
2019-04-25T16:31:14.158Z,40.11
2019-04-25T16:32:20.529Z,40.59
2019-04-25T16:34:06.891Z,41.08
2019-04-25T16:35:06.817Z,41.27
2019-04-25T16:36:59.597Z,40.79
2019-04-25T16:37:59.535Z,41.55
2019-04-25T16:39:52.334Z,42.51
2019-04-25T16:40:52.262Z,42.51
2019-04-25T16:42:45.057Z,42.22
2019-04-25T16:43:44.992Z,42.59
2019-04-25T16:45:37.819Z,43.37
2019-04-25T16:46:37.713Z,42.97
2019-04-25T16:48:31.233Z,43.95
2019-04-25T16:49:30.460Z,44.33
2019-04-25T16:51:23.281Z,44.53
2019-04-25T16:52:23.215Z,44.72
2019-04-25T16:54:16.044Z,44.72
2019-04-25T16:55:15.966Z,45.20
2019-04-25T16:57:08.732Z,44.89
2019-04-25T16:58:08.732Z,45.47
2019-04-25T17:00:01.737Z,45.86
2019-04-25T17:01:01.682Z,46.73
2019-04-25T17:02:54.468Z,46.92
2019-04-25T17:03:54.379Z,46.51
2019-04-25T17:05:47.180Z,46.34
2019-04-25T17:06:47.128Z,46.51
2019-04-25T17:08:40.254Z,46.12
2019-04-25T17:09:39.814Z,45.57
2019-04-25T17:11:33.635Z,45.66
2019-04-25T17:12:32.565Z,46.15
2019-04-25T17:14:25.422Z,46.90
2019-04-25T17:15:25.393Z,46.70
2019-04-25T17:17:18.283Z,47.19
2019-04-25T17:18:18.113Z,47.00
2019-04-25T17:20:11.019Z,48.06
2019-04-25T17:21:11.804Z,47.94
2019-04-25T17:23:03.627Z,47.84
2019-04-25T17:24:03.562Z,48.42
2019-04-25T17:25:56.331Z,48.13
2019-04-25T17:26:56.269Z,48.13
2019-04-25T17:28:49.040Z,47.74
2019-04-25T17:29:48.988Z,48.23
2019-04-25T17:31:42.640Z,48.03
2019-04-25T17:32:50.409Z,47.84
2019-04-25T17:34:34.516Z,49.00
2019-04-25T17:35:34.446Z,49.10
2019-04-25T17:37:27.218Z,50.13
2019-04-25T17:38:27.211Z,50.13
2019-04-25T17:40:19.938Z,49.85
2019-04-25T17:41:19.865Z,51.10
2019-04-25T17:43:12.643Z,51.20
2019-04-25T17:44:12.573Z,51.75
2019-04-25T17:46:05.370Z,51.75
2019-04-25T17:47:06.554Z,51.56
2019-04-25T17:48:58.082Z,52.04
2019-04-25T17:49:58.021Z,51.17
2019-04-25T17:51:50.889Z,52.23
2019-04-25T17:52:50.970Z,51.37
2019-04-25T17:54:43.669Z,51.46
2019-04-25T17:55:43.749Z,52.33
2019-04-25T17:57:36.593Z,54.05
2019-04-25T17:58:36.772Z,53.08
2019-04-25T18:00:29.375Z,53.66
2019-04-25T18:01:29.075Z,54.33
2019-04-25T18:03:21.854Z,54.33
2019-04-25T18:04:21.775Z,54.62
2019-04-25T18:06:14.561Z,55.36
2019-04-25T18:07:14.481Z,55.94
2019-04-25T18:09:07.252Z,56.81
2019-04-25T18:10:07.559Z,56.52
2019-04-25T18:12:00.134Z,55.94
2019-04-25T18:12:59.983Z,55.76
2019-04-25T18:14:53.309Z,57.29
2019-04-25T18:15:52.694Z,57.27
2019-04-25T18:17:45.464Z,56.79
2019-04-25T18:18:45.686Z,57.37
2019-04-25T18:20:38.859Z,57.56
2019-04-25T18:21:38.530Z,57.85
2019-04-25T18:23:30.933Z,57.94
2019-04-25T18:24:30.860Z,57.46
2019-04-25T18:26:24.103Z,58.23
2019-04-25T18:27:23.581Z,58.72
2019-04-25T18:29:16.340Z,57.27
2019-04-25T18:30:16.282Z,57.56
2019-04-25T18:32:09.084Z,58.14